sensor_id;sensor_type;location;lat;lon;timestamp;pressure;altitude;pressure_sealevel;temperature;humidity
21449;BME280;10885;52.830;13.788;2023-02-07T07:44:36;103838.31;;;-6.92;80.52
21449;BME280;10885;52.830;13.788;2023-02-07T07:49:58;103825.81;;;-6.45;78.90
21449;BME280;10885;52.830;13.788;2023-02-07T07:55:18;103828.25;;;-5.88;78.54
21449;BME280;10885;52.830;13.788;2023-02-07T08:00:39;103832.53;;;-5.34;76.55
21449;BME280;10885;52.830;13.788;2023-02-07T08:06:01;103830.53;;;-4.92;75.41
21449;BME280;10885;52.830;13.788;2023-02-07T08:11:22;103829.19;;;-4.26;74.32
21449;BME280;10885;52.830;13.788;2023-02-07T08:16:43;103834.81;;;-3.26;73.18
21449;BME280;10885;52.830;13.788;2023-02-07T08:22:04;103821.38;;;0.44;65.08
21449;BME280;10885;52.830;13.788;2023-02-07T08:27:25;103820.06;;;4.80;52.01
21449;BME280;10885;52.830;13.788;2023-02-07T08:32:46;103828.22;;;8.60;41.63
21449;BME280;10885;52.830;13.788;2023-02-07T08:38:07;103831.00;;;12.12;37.13
21449;BME280;10885;52.830;13.788;2023-02-07T08:43:28;103832.06;;;14.06;31.61
21449;BME280;10885;52.830;13.788;2023-02-07T08:48:48;103832.22;;;15.09;28.81
21449;BME280;10885;52.830;13.788;2023-02-07T08:54:10;103844.34;;;16.17;26.85
21449;BME280;10885;52.830;13.788;2023-02-07T08:59:31;103849.56;;;16.89;25.60
21449;BME280;10885;52.830;13.788;2023-02-07T09:04:52;103847.28;;;16.82;25.39
21449;BME280;10885;52.830;13.788;2023-02-07T09:10:13;103848.56;;;18.04;24.23
21449;BME280;10885;52.830;13.788;2023-02-07T09:15:35;103866.56;;;19.50;21.98
21449;BME280;10885;52.830;13.788;2023-02-07T09:20:56;103862.47;;;20.39;21.06
21449;BME280;10885;52.830;13.788;2023-02-07T09:26:19;103868.41;;;21.27;20.09
21449;BME280;10885;52.830;13.788;2023-02-07T09:31:41;103864.88;;;21.40;19.70
21449;BME280;10885;52.830;13.788;2023-02-07T09:37:02;103868.19;;;20.47;20.72
21449;BME280;10885;52.830;13.788;2023-02-07T09:43:05;103882.28;;;19.40;21.39
21449;BME280;10885;52.830;13.788;2023-02-07T09:48:39;103885.28;;;18.65;22.54
21449;BME280;10885;52.830;13.788;2023-02-07T09:54:14;103870.41;;;17.96;23.14
21449;BME280;10885;52.830;13.788;2023-02-07T09:59:45;103879.25;;;16.93;24.49
21449;BME280;10885;52.830;13.788;2023-02-07T10:05:15;103873.91;;;15.71;26.27
21449;BME280;10885;52.830;13.788;2023-02-07T10:10:41;103854.25;;;16.83;24.92
21449;BME280;10885;52.830;13.788;2023-02-07T10:16:24;103845.81;;;16.44;26.17
21449;BME280;10885;52.830;13.788;2023-02-07T10:22:13;103855.28;;;15.94;26.85
21449;BME280;10885;52.830;13.788;2023-02-07T10:33:23;103858.63;;;15.64;27.55
21449;BME280;10885;52.830;13.788;2023-02-07T10:44:15;103854.00;;;15.03;28.30
21449;BME280;10885;52.830;13.788;2023-02-07T10:49:37;103853.50;;;12.48;31.68
21449;BME280;10885;52.830;13.788;2023-02-07T10:55:00;103859.00;;;10.80;35.31
21449;BME280;10885;52.830;13.788;2023-02-07T11:00:30;103863.13;;;9.79;37.23
21449;BME280;10885;52.830;13.788;2023-02-07T11:06:12;103876.22;;;10.65;35.97
21449;BME280;10885;52.830;13.788;2023-02-07T11:11:35;103865.94;;;11.45;34.14
21449;BME280;10885;52.830;13.788;2023-02-07T11:16:58;103865.47;;;12.14;32.79
21449;BME280;10885;52.830;13.788;2023-02-07T11:22:22;103856.31;;;12.93;31.37
21449;BME280;10885;52.830;13.788;2023-02-07T11:27:45;103838.88;;;12.90;31.16
21449;BME280;10885;52.830;13.788;2023-02-07T11:33:16;103827.47;;;14.21;28.47
21449;BME280;10885;52.830;13.788;2023-02-07T11:38:42;103826.53;;;14.29;28.35
21449;BME280;10885;52.830;13.788;2023-02-07T11:44:16;103827.06;;;13.71;29.38
21449;BME280;10885;52.830;13.788;2023-02-07T11:49:42;103810.50;;;14.42;28.31
21449;BME280;10885;52.830;13.788;2023-02-07T11:55:08;103796.50;;;13.84;29.21
21449;BME280;10885;52.830;13.788;2023-02-07T12:00:36;103797.41;;;14.21;28.38
21449;BME280;10885;52.830;13.788;2023-02-07T12:06:01;103800.13;;;13.41;27.87
21449;BME280;10885;52.830;13.788;2023-02-07T12:11:26;103783.59;;;13.93;27.19
21449;BME280;10885;52.830;13.788;2023-02-07T12:16:52;103772.91;;;14.54;26.02
21449;BME280;10885;52.830;13.788;2023-02-07T12:22:18;103773.69;;;15.68;24.57
21449;BME280;10885;52.830;13.788;2023-02-07T12:27:43;103767.09;;;16.53;23.39
21449;BME280;10885;52.830;13.788;2023-02-07T12:33:23;103775.03;;;17.17;22.63
21449;BME280;10885;52.830;13.788;2023-02-07T12:38:53;103782.56;;;18.35;20.43
21449;BME280;10885;52.830;13.788;2023-02-07T12:44:27;103774.28;;;19.21;19.34
21449;BME280;10885;52.830;13.788;2023-02-07T13:01:39;103762.44;;;17.98;20.47
21449;BME280;10885;52.830;13.788;2023-02-07T13:12:49;103741.81;;;12.63;28.19
21449;BME280;10885;52.830;13.788;2023-02-07T13:19:02;103736.91;;;11.47;30.15
21449;BME280;10885;52.830;13.788;2023-02-07T13:24:17;103737.66;;;10.81;31.26
21449;BME280;10885;52.830;13.788;2023-02-07T13:29:40;103742.06;;;10.34;31.32
21449;BME280;10885;52.830;13.788;2023-02-07T13:35:06;103733.59;;;9.96;31.78
21449;BME280;10885;52.830;13.788;2023-02-07T13:57:41;103724.81;;;8.95;34.59
21449;BME280;10885;52.830;13.788;2023-02-07T14:03:26;103731.03;;;8.60;36.62
21449;BME280;10885;52.830;13.788;2023-02-07T14:14:37;103715.44;;;8.06;38.19
21449;BME280;10885;52.830;13.788;2023-02-07T14:19:59;103724.56;;;7.97;38.41
21449;BME280;10885;52.830;13.788;2023-02-07T14:25:37;103713.28;;;7.66;38.83
21449;BME280;10885;52.830;13.788;2023-02-07T14:31:09;103712.91;;;7.34;40.06
21449;BME280;10885;52.830;13.788;2023-02-07T14:36:31;103708.81;;;7.08;40.54
21449;BME280;10885;52.830;13.788;2023-02-07T14:41:52;103704.25;;;6.49;40.83
21449;BME280;10885;52.830;13.788;2023-02-07T14:47:23;103701.44;;;6.06;42.33
21449;BME280;10885;52.830;13.788;2023-02-07T14:52:46;103694.78;;;5.94;41.81
21449;BME280;10885;52.830;13.788;2023-02-07T14:58:22;103697.13;;;5.65;42.03
21449;BME280;10885;52.830;13.788;2023-02-07T15:03:45;103703.53;;;4.96;43.38
21449;BME280;10885;52.830;13.788;2023-02-07T15:09:26;103695.91;;;4.50;44.53
21449;BME280;10885;52.830;13.788;2023-02-07T15:14:47;103701.47;;;4.09;45.75
21449;BME280;10885;52.830;13.788;2023-02-07T15:20:18;103700.63;;;3.65;45.99
21449;BME280;10885;52.830;13.788;2023-02-07T15:25:42;103689.78;;;3.16;47.06
21449;BME280;10885;52.830;13.788;2023-02-07T15:31:15;103694.72;;;2.90;47.58
21449;BME280;10885;52.830;13.788;2023-02-07T15:36:41;103682.91;;;2.59;48.12
21449;BME280;10885;52.830;13.788;2023-02-07T15:42:03;103694.19;;;2.37;48.88
21449;BME280;10885;52.830;13.788;2023-02-07T15:52:50;103691.47;;;1.82;50.95
21449;BME280;10885;52.830;13.788;2023-02-07T15:58:25;103684.78;;;1.53;52.10
21449;BME280;10885;52.830;13.788;2023-02-07T16:03:47;103689.09;;;1.24;53.58
21449;BME280;10885;52.830;13.788;2023-02-07T16:14:59;103692.81;;;0.68;55.17
21449;BME280;10885;52.830;13.788;2023-02-07T16:20:21;103701.13;;;0.39;56.53
21449;BME280;10885;52.830;13.788;2023-02-07T16:25:42;103702.31;;;0.07;57.84
21449;BME280;10885;52.830;13.788;2023-02-07T16:31:03;103702.09;;;-0.17;59.32
21449;BME280;10885;52.830;13.788;2023-02-07T16:36:27;103706.19;;;-0.40;60.09
21449;BME280;10885;52.830;13.788;2023-02-07T16:41:50;103716.25;;;-0.57;60.77
21449;BME280;10885;52.830;13.788;2023-02-07T16:47:12;103704.97;;;-0.70;61.81
21449;BME280;10885;52.830;13.788;2023-02-07T16:52:33;103705.63;;;-0.88;62.92
21449;BME280;10885;52.830;13.788;2023-02-07T16:57:55;103707.84;;;-1.07;63.14
21449;BME280;10885;52.830;13.788;2023-02-07T17:03:17;103721.94;;;-1.24;65.11
21449;BME280;10885;52.830;13.788;2023-02-07T17:08:37;103710.44;;;-1.39;65.24
21449;BME280;10885;52.830;13.788;2023-02-07T17:13:58;103710.13;;;-1.52;66.59
21449;BME280;10885;52.830;13.788;2023-02-07T17:19:21;103693.88;;;-1.54;67.29
21449;BME280;10885;52.830;13.788;2023-02-07T17:24:43;103695.72;;;-1.53;66.66
21449;BME280;10885;52.830;13.788;2023-02-07T17:30:14;103697.50;;;-1.63;66.81
21449;BME280;10885;52.830;13.788;2023-02-07T17:35:37;103699.81;;;-1.86;68.05
21449;BME280;10885;52.830;13.788;2023-02-07T17:40:59;103707.81;;;-1.88;69.32
21449;BME280;10885;52.830;13.788;2023-02-07T17:46:22;103721.53;;;-1.86;69.38
21449;BME280;10885;52.830;13.788;2023-02-07T17:51:43;103732.81;;;-1.78;69.54
21449;BME280;10885;52.830;13.788;2023-02-07T17:57:04;103741.06;;;-1.74;69.39
21449;BME280;10885;52.830;13.788;2023-02-07T18:02:25;103742.38;;;-1.82;69.86
21449;BME280;10885;52.830;13.788;2023-02-07T18:07:47;103742.53;;;-1.91;69.82
21449;BME280;10885;52.830;13.788;2023-02-07T18:13:09;103740.41;;;-2.00;69.92
21449;BME280;10885;52.830;13.788;2023-02-07T18:18:29;103755.22;;;-2.01;70.28
21449;BME280;10885;52.830;13.788;2023-02-07T18:23:50;103755.63;;;-2.09;70.56
21449;BME280;10885;52.830;13.788;2023-02-07T18:29:14;103753.31;;;-2.13;70.96
21449;BME280;10885;52.830;13.788;2023-02-07T18:34:36;103762.13;;;-2.21;70.99
21449;BME280;10885;52.830;13.788;2023-02-07T18:39:57;103755.66;;;-2.30;71.66
21449;BME280;10885;52.830;13.788;2023-02-07T18:45:18;103763.78;;;-2.37;71.87
21449;BME280;10885;52.830;13.788;2023-02-07T18:50:45;103767.63;;;-2.45;72.20
21449;BME280;10885;52.830;13.788;2023-02-07T18:56:13;103763.19;;;-2.51;72.65
21449;BME280;10885;52.830;13.788;2023-02-07T19:01:35;103767.41;;;-2.62;72.69
21449;BME280;10885;52.830;13.788;2023-02-07T19:06:56;103777.41;;;-2.67;72.62
21449;BME280;10885;52.830;13.788;2023-02-07T19:12:19;103783.28;;;-2.72;72.88
21449;BME280;10885;52.830;13.788;2023-02-07T19:17:40;103774.44;;;-2.86;72.96
21449;BME280;10885;52.830;13.788;2023-02-07T19:23:01;103788.94;;;-2.94;73.44
21449;BME280;10885;52.830;13.788;2023-02-07T19:28:22;103782.16;;;-3.05;73.55
21449;BME280;10885;52.830;13.788;2023-02-07T19:33:44;103776.81;;;-3.12;73.93
21449;BME280;10885;52.830;13.788;2023-02-07T19:39:05;103780.81;;;-3.18;74.75
21449;BME280;10885;52.830;13.788;2023-02-07T19:44:27;103792.72;;;-3.17;74.23
21449;BME280;10885;52.830;13.788;2023-02-07T19:49:48;103797.31;;;-3.15;74.67
21449;BME280;10885;52.830;13.788;2023-02-07T19:55:11;103797.13;;;-3.11;74.78
21449;BME280;10885;52.830;13.788;2023-02-07T20:00:32;103785.34;;;-3.06;74.69
21449;BME280;10885;52.830;13.788;2023-02-07T20:05:53;103818.38;;;-3.09;74.93
21449;BME280;10885;52.830;13.788;2023-02-07T20:11:15;103800.34;;;-3.12;74.82
21449;BME280;10885;52.830;13.788;2023-02-07T20:16:37;103810.84;;;-3.09;75.33
21449;BME280;10885;52.830;13.788;2023-02-07T20:21:58;103812.44;;;-3.09;75.37
21449;BME280;10885;52.830;13.788;2023-02-07T20:27:19;103803.50;;;-3.13;75.42
21449;BME280;10885;52.830;13.788;2023-02-07T20:32:40;103814.97;;;-3.09;76.10
21449;BME280;10885;52.830;13.788;2023-02-07T20:38:01;103817.63;;;-3.13;75.76
21449;BME280;10885;52.830;13.788;2023-02-07T20:43:23;103813.78;;;-3.11;75.65
21449;BME280;10885;52.830;13.788;2023-02-07T20:48:44;103810.94;;;-3.18;75.85
21449;BME280;10885;52.830;13.788;2023-02-07T20:54:05;103811.34;;;-3.36;75.66
21449;BME280;10885;52.830;13.788;2023-02-07T20:59:31;103814.09;;;-3.50;75.97
21449;BME280;10885;52.830;13.788;2023-02-07T21:04:53;103820.22;;;-3.54;76.21
21449;BME280;10885;52.830;13.788;2023-02-07T21:10:14;103823.81;;;-3.57;76.10
21449;BME280;10885;52.830;13.788;2023-02-07T21:15:34;103819.75;;;-3.67;76.23
21449;BME280;10885;52.830;13.788;2023-02-07T21:20:55;103815.06;;;-3.75;76.37
21449;BME280;10885;52.830;13.788;2023-02-07T21:26:16;103813.78;;;-3.83;76.42
21449;BME280;10885;52.830;13.788;2023-02-07T21:31:38;103801.09;;;-3.94;76.53
21449;BME280;10885;52.830;13.788;2023-02-07T21:37:02;103806.81;;;-4.05;76.60
21449;BME280;10885;52.830;13.788;2023-02-07T21:42:22;103809.50;;;-4.18;77.07
21449;BME280;10885;52.830;13.788;2023-02-07T21:47:44;103806.88;;;-4.24;77.17
21449;BME280;10885;52.830;13.788;2023-02-07T21:53:06;103803.22;;;-4.26;77.49
21449;BME280;10885;52.830;13.788;2023-02-07T21:58:30;103802.34;;;-4.36;77.64
21449;BME280;10885;52.830;13.788;2023-02-07T22:03:53;103805.13;;;-4.45;77.60
21449;BME280;10885;52.830;13.788;2023-02-07T22:09:15;103810.28;;;-4.49;77.83
21449;BME280;10885;52.830;13.788;2023-02-07T22:14:37;103807.94;;;-4.53;77.84
21449;BME280;10885;52.830;13.788;2023-02-07T22:19:57;103819.69;;;-4.57;77.70
21449;BME280;10885;52.830;13.788;2023-02-07T22:25:18;103825.38;;;-4.68;77.95
21449;BME280;10885;52.830;13.788;2023-02-07T22:30:39;103834.75;;;-4.77;78.12
21449;BME280;10885;52.830;13.788;2023-02-07T22:36:00;103840.69;;;-4.86;78.28
21449;BME280;10885;52.830;13.788;2023-02-07T22:41:22;103829.50;;;-4.98;78.91
21449;BME280;10885;52.830;13.788;2023-02-07T22:46:43;103825.03;;;-5.05;79.06
21449;BME280;10885;52.830;13.788;2023-02-07T22:52:04;103822.94;;;-5.07;79.25
21449;BME280;10885;52.830;13.788;2023-02-07T22:57:24;103837.81;;;-5.13;79.58
21449;BME280;10885;52.830;13.788;2023-02-07T23:02:45;103824.38;;;-5.13;79.38
21449;BME280;10885;52.830;13.788;2023-02-07T23:08:07;103828.84;;;-5.16;79.56
21449;BME280;10885;52.830;13.788;2023-02-07T23:13:28;103827.00;;;-5.17;80.04
21449;BME280;10885;52.830;13.788;2023-02-07T23:18:50;103834.91;;;-5.20;79.16
21449;BME280;10885;52.830;13.788;2023-02-07T23:24:11;103824.63;;;-5.31;79.39
21449;BME280;10885;52.830;13.788;2023-02-07T23:29:32;103820.69;;;-5.45;79.79
21449;BME280;10885;52.830;13.788;2023-02-07T23:34:53;103821.47;;;-5.50;80.09
21449;BME280;10885;52.830;13.788;2023-02-07T23:40:16;103832.50;;;-5.53;79.44
21449;BME280;10885;52.830;13.788;2023-02-07T23:45:37;103831.31;;;-5.55;79.54
21449;BME280;10885;52.830;13.788;2023-02-07T23:50:58;103831.72;;;-5.58;79.88
21449;BME280;10885;52.830;13.788;2023-02-07T23:56:19;103827.25;;;-5.65;79.80
